createdAt,value
2022-12-01T00:00:56.811Z,0.7
2022-12-01T00:02:04.040Z,0.8
2022-12-01T00:03:11.217Z,0.8
2022-12-01T00:04:18.110Z,0.7
2022-12-01T00:05:25.290Z,0.7
2022-12-01T00:06:32.258Z,0.7
2022-12-01T00:07:39.539Z,0.6
2022-12-01T00:08:46.550Z,0.6
2022-12-01T00:09:58.938Z,0.5
2022-12-01T00:11:11.611Z,0.6
2022-12-01T00:12:18.874Z,0.7
2022-12-01T00:13:25.947Z,0.7
2022-12-01T00:14:32.888Z,0.6
2022-12-01T00:15:40.070Z,0.5
2022-12-01T00:16:47.221Z,0.6
2022-12-01T00:17:54.498Z,0.6
2022-12-01T00:19:01.606Z,0.7
2022-12-01T00:20:08.594Z,0.9
2022-12-01T00:21:15.767Z,0.9
2022-12-01T00:22:22.993Z,1
2022-12-01T00:23:29.839Z,1
2022-12-01T00:24:38.279Z,1
2022-12-01T00:25:45.270Z,1.1
2022-12-01T00:26:52.402Z,1.1
2022-12-01T00:27:59.547Z,0.9
2022-12-01T00:29:06.796Z,0.6
2022-12-01T00:30:13.843Z,0.8
2022-12-01T00:31:21.173Z,0.8
2022-12-01T00:32:28.121Z,0.9
2022-12-01T00:33:35.122Z,0.8
2022-12-01T00:34:42.189Z,0.9
2022-12-01T00:35:49.377Z,0.9
2022-12-01T00:37:01.654Z,1
2022-12-01T00:38:08.747Z,1
2022-12-01T00:39:16.665Z,1.1
2022-12-01T00:40:24.146Z,1.1
2022-12-01T00:41:32.049Z,1.2
2022-12-01T00:42:39.653Z,1
2022-12-01T00:43:46.831Z,0.7
2022-12-01T00:44:54.009Z,0.7
2022-12-01T00:46:01.214Z,0.6
2022-12-01T00:47:08.401Z,0.6
2022-12-01T00:48:15.632Z,0.7
2022-12-01T00:49:22.682Z,0.7
2022-12-01T00:50:29.618Z,0.9
2022-12-01T00:51:36.722Z,0.9
2022-12-01T00:52:44.027Z,0.9
2022-12-01T00:53:51.086Z,0.9
2022-12-01T00:54:58.170Z,1
2022-12-01T00:56:05.410Z,0.9
2022-12-01T00:57:12.521Z,0.9
2022-12-01T00:58:19.653Z,0.8
2022-12-01T00:59:26.779Z,0.8
2022-12-01T01:00:33.926Z,0.9
2022-12-01T01:01:44.240Z,0.9
2022-12-01T01:02:51.121Z,1
2022-12-01T01:03:58.234Z,1.1
2022-12-01T01:05:05.262Z,1
2022-12-01T01:06:12.454Z,0.9
2022-12-01T01:07:19.763Z,0.9
2022-12-01T01:08:26.858Z,1
2022-12-01T01:09:34.491Z,1
2022-12-01T01:10:41.934Z,1
2022-12-01T01:11:49.161Z,1
2022-12-01T01:12:56.181Z,1
2022-12-01T01:14:03.366Z,1.1
2022-12-01T01:15:11.150Z,1.2
2022-12-01T01:16:18.193Z,1.1
2022-12-01T01:17:25.335Z,1.1
2022-12-01T01:18:32.318Z,1.2
2022-12-01T01:19:39.539Z,1.2
2022-12-01T01:20:46.641Z,1.3
2022-12-01T01:21:59.420Z,1.3
2022-12-01T01:23:06.739Z,1.3
2022-12-01T01:24:13.793Z,1.2
2022-12-01T01:25:21.453Z,1
2022-12-01T01:26:28.473Z,1
2022-12-01T01:27:35.485Z,1.1
2022-12-01T01:28:42.669Z,1.1
2022-12-01T01:29:50.665Z,1.1
2022-12-01T01:30:57.514Z,1
2022-12-01T01:32:04.688Z,1.1
2022-12-01T01:33:11.691Z,1.1
2022-12-01T01:34:18.830Z,1.2
2022-12-01T01:35:25.991Z,1.1
2022-12-01T01:36:33.007Z,1.1
2022-12-01T01:37:40.084Z,1.1
2022-12-01T01:38:47.186Z,1.2
2022-12-01T01:39:57.680Z,1.2
2022-12-01T01:41:05.083Z,1.3
2022-12-01T01:42:12.293Z,1.3
2022-12-01T01:43:19.374Z,1.3
2022-12-01T01:44:37.153Z,1.2
2022-12-01T01:45:51.900Z,1.2
2022-12-01T01:46:59.131Z,1.1
2022-12-01T01:48:06.226Z,1.2
2022-12-01T01:49:13.225Z,1.1
2022-12-01T01:50:20.453Z,1.1
2022-12-01T01:51:27.599Z,1.1
2022-12-01T01:52:40.149Z,1.1
2022-12-01T01:53:49.829Z,1
2022-12-01T01:54:56.993Z,1
2022-12-01T01:56:04.127Z,1
2022-12-01T01:57:11.501Z,1
2022-12-01T01:58:18.496Z,1.1
2022-12-01T01:59:25.733Z,1
2022-12-01T02:00:35.646Z,1
2022-12-01T02:01:42.747Z,1.1
2022-12-01T02:02:49.953Z,1.2
2022-12-01T02:03:57.107Z,1.1
2022-12-01T02:05:04.534Z,1.1
2022-12-01T02:06:22.484Z,1
2022-12-01T02:07:29.805Z,1
2022-12-01T02:08:36.685Z,1
2022-12-01T02:09:44.121Z,1
2022-12-01T02:10:51.739Z,1.1
2022-12-01T02:12:04.335Z,1
2022-12-01T02:13:19.661Z,1.1
2022-12-01T02:14:26.753Z,1.2
2022-12-01T02:15:40.201Z,1.2
2022-12-01T02:16:58.397Z,1.1
2022-12-01T02:18:05.445Z,1.1
2022-12-01T02:19:17.718Z,1.2
2022-12-01T02:20:35.264Z,1.3
2022-12-01T02:21:45.582Z,1.4
2022-12-01T02:23:00.445Z,1.4
2022-12-01T02:24:15.597Z,1.4
2022-12-01T02:25:25.297Z,1.4
2022-12-01T02:26:43.001Z,1.4
2022-12-01T02:27:52.721Z,1.4
2022-12-01T02:29:10.041Z,1.4
2022-12-01T02:30:27.517Z,1.2
2022-12-01T02:31:45.217Z,1.4
2022-12-01T02:32:52.298Z,1.3
2022-12-01T02:34:07.518Z,1.4
2022-12-01T02:35:22.939Z,1.4
2022-12-01T02:36:38.095Z,1.4
2022-12-01T02:37:53.273Z,1.2
2022-12-01T02:39:05.510Z,1.1
2022-12-01T02:40:12.733Z,1.2
2022-12-01T02:41:19.921Z,1.4
2022-12-01T02:42:33.465Z,1.3
2022-12-01T02:43:50.861Z,1.4
2022-12-01T02:45:03.089Z,1.5
2022-12-01T02:46:10.977Z,1.5
2022-12-01T02:47:23.478Z,1.5
2022-12-01T02:48:30.541Z,1.5
2022-12-01T02:49:37.724Z,1.5
2022-12-01T02:50:44.784Z,1.5
2022-12-01T02:51:51.995Z,1.5
2022-12-01T02:52:59.060Z,1.5
2022-12-01T02:54:06.247Z,1.5
2022-12-01T02:55:13.518Z,1.5
2022-12-01T02:56:20.561Z,1.6
2022-12-01T02:57:27.732Z,1.5
2022-12-01T02:58:34.841Z,1.5
2022-12-01T02:59:41.829Z,1.5
2022-12-01T03:00:51.466Z,1.6
2022-12-01T03:02:06.422Z,1.5
2022-12-01T03:03:13.606Z,1.4
2022-12-01T03:04:26.910Z,1.4
2022-12-01T03:05:42.395Z,1.3
2022-12-01T03:06:57.251Z,1.4
2022-12-01T03:08:12.724Z,1.5
2022-12-01T03:09:19.693Z,1.3
2022-12-01T03:10:37.380Z,1.4
2022-12-01T03:11:47.700Z,1.5
2022-12-01T03:12:59.868Z,1.5
2022-12-01T03:14:15.225Z,1.5
2022-12-01T03:15:32.863Z,1.5
2022-12-01T03:16:50.216Z,1.5
2022-12-01T03:17:57.525Z,1.3
2022-12-01T03:19:07.649Z,1.4
2022-12-01T03:20:22.984Z,1.5
2022-12-01T03:21:35.429Z,1.4
2022-12-01T03:22:45.622Z,1.4
2022-12-01T03:23:52.714Z,1.4
2022-12-01T03:24:59.898Z,1.4
2022-12-01T03:26:07.113Z,1.4
2022-12-01T03:27:14.380Z,1.4
2022-12-01T03:28:22.338Z,1.4
2022-12-01T03:29:28.676Z,1.5
2022-12-01T03:30:41.100Z,1.5
2022-12-01T03:31:48.384Z,1.5
2022-12-01T03:32:56.229Z,1.5
2022-12-01T03:34:08.672Z,1.6
2022-12-01T03:35:18.452Z,1.4
2022-12-01T03:36:31.921Z,1.3
2022-12-01T03:37:39.065Z,1.3
2022-12-01T03:38:54.429Z,1.3
2022-12-01T03:40:01.953Z,1.2
2022-12-01T03:41:09.378Z,1.1
2022-12-01T03:42:16.417Z,1.2
2022-12-01T03:43:23.532Z,1.3
2022-12-01T03:44:36.829Z,1.2
2022-12-01T03:45:47.052Z,1.3
2022-12-01T03:47:04.204Z,1.3
2022-12-01T03:48:11.378Z,1.4
2022-12-01T03:49:18.563Z,1.4
2022-12-01T03:50:25.835Z,1.5
2022-12-01T03:51:35.788Z,1.4
2022-12-01T03:52:48.027Z,1.5
2022-12-01T03:54:03.309Z,1.5
2022-12-01T03:55:15.611Z,1.5
2022-12-01T03:56:30.875Z,1.5
2022-12-01T03:57:37.943Z,1.5
2022-12-01T03:58:50.059Z,1.3
2022-12-01T03:59:57.287Z,1.2
2022-12-01T04:01:04.306Z,1.1
2022-12-01T04:02:11.513Z,1.2
2022-12-01T04:03:18.821Z,1.1
2022-12-01T04:04:25.778Z,1.3
2022-12-01T04:05:32.767Z,1.2
2022-12-01T04:06:40.131Z,1.2
2022-12-01T04:07:49.679Z,1.3
2022-12-01T04:08:56.749Z,1.4
2022-12-01T04:10:03.885Z,1.4
2022-12-01T04:11:11.019Z,1.3
2022-12-01T04:12:23.262Z,1.3
2022-12-01T04:13:33.202Z,1.4
2022-12-01T04:14:40.408Z,1.3
2022-12-01T04:15:47.623Z,1.2
2022-12-01T04:16:54.704Z,1.2
2022-12-01T04:18:01.906Z,1.2
2022-12-01T04:19:08.975Z,1.3
2022-12-01T04:20:16.132Z,1.4
2022-12-01T04:21:23.327Z,1.4
2022-12-01T04:22:30.358Z,1.4
2022-12-01T04:23:37.446Z,1.4
2022-12-01T04:24:49.702Z,1.4
2022-12-01T04:25:56.963Z,1.6
2022-12-01T04:27:03.955Z,1.7
2022-12-01T04:28:11.012Z,1.6
2022-12-01T04:29:18.191Z,1.5
2022-12-01T04:30:25.378Z,1.6
2022-12-01T04:31:32.822Z,1.7
2022-12-01T04:32:40.161Z,1.7
2022-12-01T04:33:47.215Z,1.5
2022-12-01T04:34:54.222Z,1.6
2022-12-01T04:36:01.400Z,1.5
2022-12-01T04:37:08.532Z,1.6
2022-12-01T04:38:15.931Z,1.6
2022-12-01T04:39:23.067Z,1.6
2022-12-01T04:40:29.987Z,1.6
2022-12-01T04:41:36.933Z,1.6
2022-12-01T04:42:44.147Z,1.6
2022-12-01T04:43:51.206Z,1.7
2022-12-01T04:44:58.399Z,1.8
2022-12-01T04:46:05.631Z,1.8
2022-12-01T04:47:12.734Z,1.9
2022-12-01T04:48:19.894Z,1.8
2022-12-01T04:49:27.035Z,1.8
2022-12-01T04:50:34.002Z,1.8
2022-12-01T04:51:41.491Z,1.8
2022-12-01T04:52:48.851Z,1.8
2022-12-01T04:53:55.982Z,1.8
2022-12-01T04:55:03.147Z,1.8
2022-12-01T04:56:10.327Z,1.7
2022-12-01T04:57:17.446Z,1.6
2022-12-01T04:58:24.694Z,1.6
2022-12-01T04:59:32.036Z,1.7
2022-12-01T05:00:39.235Z,1.7
2022-12-01T05:01:46.430Z,1.7
2022-12-01T05:02:53.543Z,1.8
2022-12-01T05:04:00.973Z,1.8
2022-12-01T05:05:08.439Z,1.7
2022-12-01T05:06:15.446Z,1.7
2022-12-01T05:07:22.701Z,1.7
2022-12-01T05:08:30.143Z,1.8
2022-12-01T05:09:37.310Z,1.9
2022-12-01T05:10:44.495Z,1.8
2022-12-01T05:11:51.696Z,1.7
2022-12-01T05:12:58.744Z,1.5
2022-12-01T05:14:05.854Z,1.6
2022-12-01T05:15:13.142Z,1.6
2022-12-01T05:16:20.281Z,1.7
2022-12-01T05:17:29.574Z,1.8
2022-12-01T05:18:35.056Z,1.7
2022-12-01T05:19:41.962Z,1.7
2022-12-01T05:20:54.318Z,1.8
2022-12-01T05:22:01.387Z,1.8
2022-12-01T05:23:12.194Z,1.8
2022-12-01T05:24:15.682Z,1.9
2022-12-01T05:25:22.882Z,1.9
2022-12-01T05:26:30.134Z,1.9
2022-12-01T05:27:36.979Z,2
2022-12-01T05:28:44.201Z,1.9
2022-12-01T05:29:51.538Z,1.8
2022-12-01T05:30:58.446Z,1.9
2022-12-01T05:32:05.794Z,1.9
2022-12-01T05:33:12.830Z,2
2022-12-01T05:34:19.967Z,1.9
2022-12-01T05:35:27.218Z,1.8
2022-12-01T05:36:34.542Z,1.8
2022-12-01T05:37:41.714Z,1.6
2022-12-01T05:38:48.935Z,1.6
2022-12-01T05:39:55.998Z,1.7
2022-12-01T05:41:03.129Z,1.7
2022-12-01T05:42:10.363Z,1.7
2022-12-01T05:43:17.518Z,1.8
2022-12-01T05:44:24.858Z,1.8
2022-12-01T05:45:31.985Z,1.9
2022-12-01T05:46:39.234Z,1.9
2022-12-01T05:47:46.415Z,1.9
2022-12-01T05:48:53.620Z,1.8
2022-12-01T05:50:05.084Z,1.7
2022-12-01T05:51:08.034Z,1.8
2022-12-01T05:52:15.316Z,1.7
2022-12-01T05:53:22.168Z,1.7
2022-12-01T05:54:29.403Z,1.7
2022-12-01T05:55:36.342Z,1.8
2022-12-01T05:56:43.486Z,1.8
2022-12-01T05:57:50.666Z,1.9
2022-12-01T05:58:57.802Z,1.8
2022-12-01T06:00:05.067Z,1.9
2022-12-01T06:01:12.602Z,1.9
2022-12-01T06:02:20.116Z,1.9
2022-12-01T06:03:26.946Z,2
2022-12-01T06:04:34.006Z,2
2022-12-01T06:05:41.998Z,2
2022-12-01T06:06:50.239Z,2.1
2022-12-01T06:07:57.462Z,2
2022-12-01T06:09:04.633Z,2
2022-12-01T06:10:11.697Z,2
2022-12-01T06:11:18.921Z,2
2022-12-01T06:12:26.212Z,1.8
2022-12-01T06:13:33.477Z,1.9
2022-12-01T06:14:40.645Z,1.9
2022-12-01T06:15:47.927Z,1.9
2022-12-01T06:17:03.171Z,2.1
2022-12-01T06:18:10.165Z,1.9
2022-12-01T06:19:17.449Z,2
2022-12-01T06:20:24.574Z,2
2022-12-01T06:21:32.105Z,2
2022-12-01T06:22:39.305Z,2.1
2022-12-01T06:23:46.401Z,2.1
2022-12-01T06:24:53.561Z,2.1
2022-12-01T06:26:00.770Z,1.8
2022-12-01T06:27:07.873Z,1.9
2022-12-01T06:28:15.265Z,2
2022-12-01T06:29:22.197Z,2.1
2022-12-01T06:30:29.357Z,2.1
2022-12-01T06:31:36.298Z,2
2022-12-01T06:32:43.525Z,2
2022-12-01T06:33:50.670Z,2
2022-12-01T06:34:57.750Z,2.1
2022-12-01T06:36:05.037Z,2.1
2022-12-01T06:37:12.582Z,2.1
2022-12-01T06:38:19.729Z,1.9
2022-12-01T06:39:27.074Z,1.9
2022-12-01T06:40:34.352Z,1.8
2022-12-01T06:41:41.753Z,1.9
2022-12-01T06:42:48.681Z,1.9
2022-12-01T06:43:55.825Z,2
2022-12-01T06:45:02.978Z,2
2022-12-01T06:46:10.601Z,2
2022-12-01T06:47:17.902Z,2
2022-12-01T06:48:24.984Z,2
2022-12-01T06:49:32.229Z,2
2022-12-01T06:50:39.649Z,1.9
2022-12-01T06:51:46.758Z,2
2022-12-01T06:52:54.109Z,2
2022-12-01T06:54:05.371Z,2.1
2022-12-01T06:55:08.309Z,2.1
2022-12-01T06:56:15.421Z,2.2
2022-12-01T06:57:22.512Z,2.1
2022-12-01T06:58:29.682Z,1.9
2022-12-01T06:59:36.572Z,2
2022-12-01T07:00:47.680Z,1.9
2022-12-01T07:01:50.964Z,1.9
2022-12-01T07:02:58.155Z,2
2022-12-01T07:04:05.194Z,2
2022-12-01T07:05:12.426Z,1.9
2022-12-01T07:06:19.730Z,1.8
2022-12-01T07:07:26.947Z,1.9
2022-12-01T07:08:34.128Z,2
2022-12-01T07:09:41.306Z,1.9
2022-12-01T07:10:48.449Z,1.8
2022-12-01T07:12:03.201Z,1.9
2022-12-01T07:13:10.393Z,2
2022-12-01T07:14:17.577Z,1.9
2022-12-01T07:15:27.257Z,2
2022-12-01T07:16:34.245Z,2.1
2022-12-01T07:17:41.410Z,2.1
2022-12-01T07:18:48.733Z,1.9
2022-12-01T07:19:55.650Z,1.8
2022-12-01T07:21:02.841Z,1.9
2022-12-01T07:22:10.053Z,1.9
2022-12-01T07:23:17.153Z,1.8
2022-12-01T07:24:24.446Z,1.9
2022-12-01T07:25:31.417Z,1.8
2022-12-01T07:26:38.417Z,1.9
2022-12-01T07:27:45.593Z,1.8
2022-12-01T07:28:52.760Z,2
2022-12-01T07:30:00.062Z,2
2022-12-01T07:31:07.115Z,1.9
2022-12-01T07:32:14.221Z,1.7
2022-12-01T07:33:21.445Z,1.8
2022-12-01T07:34:28.556Z,1.9
2022-12-01T07:35:35.501Z,2
2022-12-01T07:36:42.721Z,2
2022-12-01T07:37:49.777Z,2
2022-12-01T07:38:59.558Z,1.9
2022-12-01T07:40:09.846Z,1.9
2022-12-01T07:41:16.881Z,2
2022-12-01T07:42:24.009Z,2.1
2022-12-01T07:43:31.137Z,2
2022-12-01T07:44:38.157Z,2
2022-12-01T07:45:45.532Z,1.9
2022-12-01T07:46:52.523Z,1.9
2022-12-01T07:47:59.692Z,1.9
2022-12-01T07:49:06.804Z,1.9
2022-12-01T07:50:14.158Z,2.1
2022-12-01T07:51:21.113Z,2.1
2022-12-01T07:52:28.430Z,2.1
2022-12-01T07:53:35.649Z,2
2022-12-01T07:54:42.836Z,2
2022-12-01T07:55:49.985Z,2.1
2022-12-01T07:56:57.109Z,2.1
2022-12-01T07:58:04.354Z,2
2022-12-01T07:59:11.472Z,2.1
2022-12-01T08:00:18.608Z,2
2022-12-01T08:01:25.772Z,1.9
2022-12-01T08:02:32.913Z,1.8
2022-12-01T08:03:39.901Z,1.9
2022-12-01T08:04:46.980Z,1.9
2022-12-01T08:05:54.265Z,1.9
2022-12-01T08:07:01.334Z,1.9
2022-12-01T08:08:08.566Z,1.9
2022-12-01T08:09:15.609Z,1.8
2022-12-01T08:10:22.848Z,1.9
2022-12-01T08:11:30.131Z,1.9
2022-12-01T08:12:37.325Z,2
2022-12-01T08:13:44.524Z,2.1
2022-12-01T08:14:51.702Z,2.2
2022-12-01T08:15:59.098Z,2.2
2022-12-01T08:17:06.092Z,2
2022-12-01T08:18:13.193Z,1.9
2022-12-01T08:19:20.329Z,1.9
2022-12-01T08:20:27.580Z,1.8
2022-12-01T08:21:34.402Z,1.9
2022-12-01T08:22:41.563Z,2
2022-12-01T08:23:48.904Z,2.1
2022-12-01T08:24:58.485Z,2.2
2022-12-01T08:26:05.699Z,2.2
2022-12-01T08:27:12.776Z,2.3
2022-12-01T08:28:19.813Z,2.2
2022-12-01T08:29:27.213Z,2.2
2022-12-01T08:30:34.475Z,2.2
2022-12-01T08:31:41.786Z,2.1
2022-12-01T08:32:48.740Z,2.1
2022-12-01T08:34:01.115Z,2.2
2022-12-01T08:35:08.282Z,2.1
2022-12-01T08:36:15.401Z,2.1
2022-12-01T08:37:22.580Z,2.2
2022-12-01T08:38:29.745Z,2.2
2022-12-01T08:39:36.845Z,2.2
2022-12-01T08:40:43.756Z,2.1
2022-12-01T08:41:50.956Z,2.1
2022-12-01T08:42:58.072Z,2.1
2022-12-01T08:44:05.297Z,2.2
2022-12-01T08:45:15.516Z,2.1
2022-12-01T08:46:22.796Z,2
2022-12-01T08:47:32.821Z,2.1
2022-12-01T08:48:39.804Z,2.1
2022-12-01T08:49:47.161Z,2.1
2022-12-01T08:50:54.030Z,2.1
2022-12-01T08:52:09.424Z,2.2
2022-12-01T08:53:16.619Z,2.2
2022-12-01T08:54:23.689Z,2.1
2022-12-01T08:55:30.844Z,2.2
2022-12-01T08:56:37.848Z,2.1
2022-12-01T08:57:44.978Z,2.1
2022-12-01T08:58:52.179Z,2.2
2022-12-01T08:59:59.268Z,2.2
2022-12-01T09:01:06.412Z,2.1
2022-12-01T09:02:13.635Z,2.2
2022-12-01T09:03:20.838Z,2.3
2022-12-01T09:04:27.871Z,2.3
2022-12-01T09:05:34.901Z,2.3
2022-12-01T09:06:42.120Z,2.4
2022-12-01T09:07:49.213Z,2.4
2022-12-01T09:08:56.375Z,2.3
2022-12-01T09:10:03.484Z,2.2
2022-12-01T09:11:10.676Z,2.3
2022-12-01T09:12:17.997Z,2.3
2022-12-01T09:13:24.916Z,2.4
2022-12-01T09:14:32.105Z,2.3
2022-12-01T09:15:42.056Z,2.2
2022-12-01T09:16:49.292Z,2.2
2022-12-01T09:17:56.450Z,2
2022-12-01T09:19:03.708Z,2
2022-12-01T09:20:10.792Z,2
2022-12-01T09:21:17.919Z,1.9
2022-12-01T09:22:28.067Z,1.9
2022-12-01T09:23:35.025Z,2
2022-12-01T09:24:42.173Z,2
2022-12-01T09:25:49.301Z,2.1
2022-12-01T09:26:56.473Z,2.2
2022-12-01T09:28:03.669Z,2.1
2022-12-01T09:29:10.757Z,2
2022-12-01T09:30:17.933Z,2.1
2022-12-01T09:31:25.132Z,2.3
2022-12-01T09:32:32.312Z,2.3
2022-12-01T09:33:39.603Z,2.2
2022-12-01T09:34:46.969Z,2
2022-12-01T09:35:53.913Z,2.1
2022-12-01T09:37:01.126Z,2.1
2022-12-01T09:38:08.180Z,2.2
2022-12-01T09:39:15.540Z,2.1
2022-12-01T09:40:22.700Z,1.9
2022-12-01T09:41:29.872Z,1.9
2022-12-01T09:42:47.300Z,2.1
2022-12-01T09:43:54.439Z,2.1
2022-12-01T09:45:04.168Z,1.9
2022-12-01T09:46:11.371Z,1.7
2022-12-01T09:47:23.609Z,1.9
2022-12-01T09:48:38.622Z,2
2022-12-01T09:49:45.756Z,2.1
2022-12-01T09:50:52.968Z,1.9
2022-12-01T09:52:00.130Z,1.9
2022-12-01T09:53:07.200Z,1.8
2022-12-01T09:54:14.387Z,1.8
2022-12-01T09:55:21.492Z,2
2022-12-01T09:56:28.699Z,1.9
2022-12-01T09:57:35.576Z,1.9
2022-12-01T09:58:42.832Z,2.1
2022-12-01T09:59:50.167Z,2
2022-12-01T10:00:57.216Z,2.1
2022-12-01T10:02:04.306Z,2.2
2022-12-01T10:03:11.475Z,2.1
2022-12-01T10:04:21.243Z,2
2022-12-01T10:05:46.872Z,2
2022-12-01T10:06:51.642Z,2
2022-12-01T10:08:09.266Z,2
2022-12-01T10:09:16.850Z,2.2
2022-12-01T10:10:29.945Z,1.9
2022-12-01T10:11:40.538Z,2
2022-12-01T10:12:48.423Z,2
2022-12-01T10:13:56.038Z,2.1
2022-12-01T10:15:02.999Z,2
2022-12-01T10:16:20.893Z,1.8
2022-12-01T10:17:28.456Z,1.9
2022-12-01T10:18:38.546Z,1.9
2022-12-01T10:19:51.237Z,2
2022-12-01T10:20:57.919Z,1.9
2022-12-01T10:22:10.757Z,1.9
2022-12-01T10:23:23.008Z,2
2022-12-01T10:24:40.597Z,2
2022-12-01T10:25:50.610Z,1.7
2022-12-01T10:27:03.258Z,1.7
2022-12-01T10:28:18.406Z,1.6
2022-12-01T10:29:36.164Z,1.9
2022-12-01T10:30:48.394Z,1.9
2022-12-01T10:31:55.529Z,1.7
2022-12-01T10:33:05.773Z,1.8
2022-12-01T10:34:12.741Z,1.7
2022-12-01T10:35:25.145Z,1.8
2022-12-01T10:36:32.132Z,1.8
2022-12-01T10:37:39.174Z,1.8
2022-12-01T10:38:46.220Z,1.7
2022-12-01T10:39:53.449Z,1.9
2022-12-01T10:41:00.585Z,1.9
2022-12-01T10:42:07.829Z,1.8
2022-12-01T10:43:23.257Z,1.8
2022-12-01T10:44:35.669Z,1.7
2022-12-01T10:45:42.892Z,1.8
2022-12-01T10:46:50.047Z,1.8
2022-12-01T10:47:58.922Z,2
2022-12-01T10:49:14.889Z,1.8
2022-12-01T10:50:22.275Z,1.9
2022-12-01T10:51:29.330Z,1.9
2022-12-01T10:52:36.796Z,1.9
2022-12-01T10:53:43.762Z,1.9
2022-12-01T10:54:50.921Z,1.9
2022-12-01T10:55:58.159Z,2
2022-12-01T10:57:15.550Z,1.9
2022-12-01T10:58:22.540Z,2
2022-12-01T10:59:29.740Z,2
2022-12-01T11:01:47.028Z,2
2022-12-01T11:02:54.226Z,2
2022-12-01T11:04:01.394Z,2
2022-12-01T11:05:11.305Z,2.2
2022-12-01T11:06:23.799Z,2.2
2022-12-01T11:07:30.817Z,2.1
2022-12-01T11:08:37.844Z,2.2
2022-12-01T11:09:44.965Z,2.2
2022-12-01T11:10:52.230Z,2.3
2022-12-01T11:11:59.372Z,2.3
2022-12-01T11:13:07.123Z,2.3
2022-12-01T11:14:22.384Z,2.2
2022-12-01T11:15:35.573Z,2.1
2022-12-01T11:16:46.528Z,2
2022-12-01T11:17:53.680Z,2.1
2022-12-01T11:19:00.815Z,2.1
2022-12-01T11:20:10.895Z,2.2
2022-12-01T11:21:28.537Z,2.2
2022-12-01T11:22:36.077Z,2.2
2022-12-01T11:23:42.979Z,2.2
2022-12-01T11:24:53.222Z,2.1
2022-12-01T11:26:00.432Z,2.1
2022-12-01T11:27:13.105Z,2
2022-12-01T11:28:20.371Z,2
2022-12-01T11:29:27.476Z,2.1
2022-12-01T11:30:39.860Z,2
2022-12-01T11:31:47.585Z,2.1
2022-12-01T11:32:54.836Z,2.1
2022-12-01T11:34:02.053Z,2.1
2022-12-01T11:35:09.257Z,2.1
2022-12-01T11:36:16.433Z,2.1
2022-12-01T11:37:28.623Z,2.2
2022-12-01T11:38:41.228Z,2.1
2022-12-01T11:39:48.641Z,2.1
2022-12-01T11:40:55.452Z,1.9
2022-12-01T11:42:02.624Z,2
2022-12-01T11:43:09.797Z,2
2022-12-01T11:44:35.583Z,2.1
2022-12-01T11:45:24.252Z,2.1
2022-12-01T11:46:31.816Z,2.1
2022-12-01T11:47:38.821Z,2.1
2022-12-01T11:48:56.500Z,2.2
2022-12-01T11:50:03.804Z,2.2
2022-12-01T11:51:11.268Z,2.3
2022-12-01T11:52:22.288Z,2.2
2022-12-01T11:53:29.295Z,2.2
2022-12-01T11:54:39.241Z,2.1
2022-12-01T11:55:46.336Z,2.2
2022-12-01T11:57:17.730Z,2.3
2022-12-01T11:58:00.604Z,2.2
2022-12-01T11:59:07.789Z,2.2
2022-12-01T12:00:20.208Z,2.2
2022-12-01T12:01:30.180Z,2.2
2022-12-01T12:02:48.734Z,2.1
2022-12-01T12:04:01.148Z,2.1
2022-12-01T12:05:13.348Z,2.1
2022-12-01T12:06:43.962Z,2
2022-12-01T12:07:46.355Z,2.2
2022-12-01T12:08:58.841Z,2.2
2022-12-01T12:10:10.846Z,2.3
2022-12-01T12:11:23.791Z,2.3
2022-12-01T12:12:36.774Z,2.3
2022-12-01T12:13:44.039Z,2.3
2022-12-01T12:15:01.677Z,2.3
2022-12-01T12:16:14.048Z,2.4
2022-12-01T12:17:27.503Z,2.4
2022-12-01T12:18:37.717Z,2.5
2022-12-01T12:20:09.057Z,2.5
2022-12-01T12:21:04.817Z,2.4
2022-12-01T12:22:20.524Z,2.2
2022-12-01T12:23:32.827Z,2.3
2022-12-01T12:24:44.957Z,2.2
2022-12-01T12:25:55.054Z,2.3
2022-12-01T12:27:04.753Z,2.3
2022-12-01T12:28:17.365Z,2.4
2022-12-01T12:29:32.433Z,2.4
2022-12-01T12:30:42.056Z,2.3
2022-12-01T12:31:55.589Z,2.4
2022-12-01T12:33:13.018Z,2.3
2022-12-01T12:34:25.372Z,2.3
2022-12-01T12:35:37.892Z,2.4
2022-12-01T12:36:48.114Z,2.2
2022-12-01T12:38:05.457Z,2.3
2022-12-01T12:39:17.669Z,2.2
2022-12-01T12:40:32.942Z,2.2
2022-12-01T12:41:45.037Z,2.2
2022-12-01T12:42:52.154Z,2.4
2022-12-01T12:44:09.829Z,2.3
2022-12-01T12:45:22.254Z,2.4
2022-12-01T12:46:40.079Z,2.4
2022-12-01T12:47:47.135Z,2.3
2022-12-01T12:49:19.547Z,2.2
2022-12-01T12:50:22.309Z,2.4
2022-12-01T12:51:34.665Z,2.5
2022-12-01T12:52:52.265Z,2.5
2022-12-01T12:53:59.507Z,2.5
2022-12-01T12:55:11.752Z,2.4
2022-12-01T12:56:19.016Z,2.5
2022-12-01T12:57:26.017Z,2.4
2022-12-01T12:58:33.291Z,2.3
2022-12-01T12:59:45.729Z,2.4
2022-12-01T13:00:55.479Z,2.4
2022-12-01T13:02:02.751Z,2.4
2022-12-01T13:03:19.982Z,2.4
2022-12-01T13:04:35.568Z,2.3
2022-12-01T13:05:48.362Z,2.4
2022-12-01T13:07:03.362Z,2.2
2022-12-01T13:08:10.406Z,2.2
2022-12-01T13:09:17.559Z,2.3
2022-12-01T13:10:27.286Z,2.3
2022-12-01T13:11:45.191Z,2.3
2022-12-01T13:12:55.188Z,2.3
2022-12-01T13:14:04.910Z,2
2022-12-01T13:15:22.145Z,2.1
2022-12-01T13:16:29.431Z,2.1
2022-12-01T13:17:40.545Z,2.1
2022-12-01T13:18:52.693Z,2.1
2022-12-01T13:19:59.802Z,2.2
2022-12-01T13:21:06.897Z,2.2
2022-12-01T13:22:14.318Z,2.2
2022-12-01T13:23:21.559Z,2.2
2022-12-01T13:24:28.490Z,2.2
2022-12-01T13:25:35.576Z,2.3
2022-12-01T13:26:42.580Z,2.1
2022-12-01T13:27:49.871Z,2.1
2022-12-01T13:28:56.890Z,2.1
2022-12-01T13:30:04.126Z,2.1
2022-12-01T13:31:11.828Z,2.1
2022-12-01T13:32:18.794Z,2.2
2022-12-01T13:33:31.619Z,2.2
2022-12-01T13:34:38.898Z,2.2
2022-12-01T13:35:45.946Z,2
2022-12-01T13:36:53.040Z,2
2022-12-01T13:38:00.113Z,1.9
2022-12-01T13:39:17.458Z,2
2022-12-01T13:40:24.684Z,2
2022-12-01T13:41:31.891Z,2.2
2022-12-01T13:42:41.927Z,2.3
2022-12-01T13:43:48.969Z,2.2
2022-12-01T13:45:01.291Z,1.9
2022-12-01T13:46:13.846Z,1.9
2022-12-01T13:47:23.770Z,1.9
2022-12-01T13:48:36.015Z,2
2022-12-01T13:49:42.929Z,2
2022-12-01T13:50:50.315Z,2.1
2022-12-01T13:52:00.382Z,1.8
2022-12-01T13:53:17.700Z,1.8
2022-12-01T13:54:32.579Z,1.9
2022-12-01T13:55:39.415Z,2
2022-12-01T13:56:57.083Z,1.9
2022-12-01T13:58:03.900Z,2
2022-12-01T13:59:11.304Z,1.9
2022-12-01T14:00:29.073Z,1.9
2022-12-01T14:01:36.275Z,1.7
2022-12-01T14:02:46.289Z,1.7
2022-12-01T14:04:03.582Z,1.8
2022-12-01T14:05:15.791Z,1.9
2022-12-01T14:06:26.513Z,2
2022-12-01T14:07:44.291Z,1.9
2022-12-01T14:08:51.307Z,2
2022-12-01T14:10:01.108Z,2
2022-12-01T14:11:11.231Z,2.1
2022-12-01T14:12:23.573Z,2.1
2022-12-01T14:13:31.474Z,2.1
2022-12-01T14:14:49.019Z,2.1
2022-12-01T14:15:56.174Z,2.1
2022-12-01T14:17:03.447Z,2.1
2022-12-01T14:18:10.441Z,2
2022-12-01T14:19:25.875Z,1.9
2022-12-01T14:20:43.508Z,1.9
2022-12-01T14:21:50.516Z,1.9
2022-12-01T14:22:57.727Z,1.9
2022-12-01T14:24:15.093Z,1.9
2022-12-01T14:25:25.047Z,1.8
2022-12-01T14:26:32.052Z,1.7
2022-12-01T14:27:38.968Z,1.8
2022-12-01T14:28:46.838Z,1.9
2022-12-01T14:29:59.335Z,1.9
2022-12-01T14:31:17.118Z,1.8
2022-12-01T14:32:24.426Z,1.9
2022-12-01T14:33:31.727Z,1.9
2022-12-01T14:34:44.135Z,1.8
2022-12-01T14:35:51.590Z,1.8
2022-12-01T14:36:58.539Z,1.7
2022-12-01T14:38:09.023Z,1.7
2022-12-01T14:39:16.314Z,1.8
2022-12-01T14:40:28.552Z,1.7
2022-12-01T14:41:35.740Z,1.8
2022-12-01T14:42:45.816Z,1.8
2022-12-01T14:43:58.040Z,1.7
2022-12-01T14:45:18.650Z,1.9
2022-12-01T14:46:25.604Z,1.9
2022-12-01T14:47:32.830Z,1.9
2022-12-01T14:48:42.671Z,2
2022-12-01T14:49:50.095Z,2
2022-12-01T14:50:59.570Z,2
2022-12-01T14:52:21.055Z,2.1
2022-12-01T14:53:33.922Z,2.1
2022-12-01T14:54:41.518Z,1.9
2022-12-01T14:55:49.459Z,1.7
2022-12-01T14:57:04.428Z,1.7
2022-12-01T14:58:06.820Z,1.8
2022-12-01T14:59:19.668Z,1.8
2022-12-01T15:00:26.847Z,1.9
2022-12-01T15:01:33.915Z,1.9
2022-12-01T15:02:41.418Z,1.7
2022-12-01T15:03:51.639Z,1.8
2022-12-01T15:04:58.694Z,1.6
2022-12-01T15:06:12.095Z,1.6
2022-12-01T15:07:22.245Z,1.6
2022-12-01T15:08:53.631Z,1.7
2022-12-01T15:09:37.395Z,1.8
2022-12-01T15:10:44.511Z,1.9
2022-12-01T15:11:59.262Z,2
2022-12-01T15:13:06.459Z,1.9
2022-12-01T15:14:23.980Z,2
2022-12-01T15:15:31.014Z,2
2022-12-01T15:16:37.917Z,2
2022-12-01T15:17:45.338Z,2
2022-12-01T15:18:52.235Z,2
2022-12-01T15:19:59.733Z,2
2022-12-01T15:21:07.034Z,2
2022-12-01T15:22:17.454Z,2
2022-12-01T15:23:24.403Z,2
2022-12-01T15:24:31.578Z,2
2022-12-01T15:25:38.766Z,1.9
2022-12-01T15:26:45.746Z,2
2022-12-01T15:27:53.091Z,2
2022-12-01T15:29:10.619Z,2
2022-12-01T15:30:20.622Z,2.1
2022-12-01T15:31:27.755Z,2
2022-12-01T15:32:34.726Z,2
2022-12-01T15:33:41.778Z,2
2022-12-01T15:34:52.355Z,1.8
2022-12-01T15:35:59.407Z,1.9
2022-12-01T15:37:06.430Z,2
2022-12-01T15:38:16.811Z,1.9
2022-12-01T15:39:28.979Z,2
2022-12-01T15:41:06.592Z,2
2022-12-01T15:41:43.811Z,2
2022-12-01T15:42:51.042Z,2
2022-12-01T15:44:06.038Z,1.9
2022-12-01T15:45:21.260Z,1.9
2022-12-01T15:46:28.622Z,1.9
2022-12-01T15:47:35.872Z,1.9
2022-12-01T15:48:43.058Z,1.9
2022-12-01T15:49:50.153Z,1.8
2022-12-01T15:50:57.343Z,1.8
2022-12-01T15:52:09.510Z,1.7
2022-12-01T15:53:17.019Z,1.7
2022-12-01T15:54:29.482Z,1.6
2022-12-01T15:55:36.610Z,1.7
2022-12-01T15:56:43.742Z,1.7
2022-12-01T15:57:50.790Z,1.7
2022-12-01T15:58:57.894Z,1.7
2022-12-01T16:00:12.671Z,1.8
2022-12-01T16:01:22.819Z,1.9
2022-12-01T16:02:29.739Z,1.9